• Join FlightAware (Why Join?)
  • Login
  • US Flag 
01:50AM EST


 

Airport Tracker/Info


-or-


 

Live Flight TrackerFlight Track Log ✈ N8387Z ✈ 14-May-2013 ✈ KCPS - KPOF

Flight Track Log - Related Links

Times and Time Zones

All times are in EDT time to prevent confusion due to time zone crossing. See the N8387Z flight status page for this flight to view local times or setup timezone preferences in your user account.

Time Position Orientation Groundspeed Altitude Reporting Facility
EDT Latitude Longitude Course Direction KTS MPH feet Rate Location/Type
09:58AM 38.5333 -90.1167 159° South 100 115 1,800  Level Gateway (St. Louis) TRACON
09:59AM 38.5000 -90.1000 159° South 108 124 2,500 480 Climbing Gateway (St. Louis) TRACON
10:00AM 38.4889 -90.0939 157° South 105 121 2,600 480 Climbing Kansas City Center
10:01AM 38.4494 -90.0928 179° South 112 129 3,300 660 Climbing Kansas City Center
10:02AM 38.4161 -90.0936 181° South 117 135 4,000 660 Climbing Kansas City Center
10:03AM 38.3839 -90.1000 189° South 117 135 4,700 720 Climbing Kansas City Center
10:04AM 38.3531 -90.1064 189° South 115 132 5,600 600 Climbing Kansas City Center
10:05AM 38.3189 -90.1111 186° South 117 135 6,000 180 Climbing Kansas City Center
10:06AM 38.2789 -90.1164 186° South 129 148 6,000  Level Kansas City Center
10:07AM 38.2250 -90.1225 185° South 148 170 6,000 -60 Level Kansas City Center
10:08AM 38.1811 -90.1303 188° South 156 180 5,900 -60 Descending Kansas City Center
10:09AM 38.1361 -90.1408 190° South 160 184 5,900  Level Kansas City Center
10:10AM 38.0919 -90.1436 183° South 160 184 6,000  Climbing Kansas City Center
10:11AM 38.0469 -90.1461 183° South 162 186 6,000  Level Kansas City Center
10:12AM 38.0025 -90.1525 186° South 161 185 6,000  Level Kansas City Center
10:13AM 37.9492 -90.1606 187° South 160 184 6,000  Level Kansas City Center
10:14AM 37.9042 -90.1650 184° South 162 186 6,000  Level Kansas City Center
10:15AM 37.8594 -90.1722 187° South 162 186 6,000  Level Kansas City Center
10:16AM 37.8133 -90.1822 190° South 166 191 6,000  Level Kansas City Center
10:17AM 37.7678 -90.1900 188° South 165 190 6,000  Level Kansas City Center
10:18AM 37.7239 -90.1942 184° South 160 184 6,000  Level Kansas City Center
10:19AM 37.6697 -90.2003 185° South 162 186 6,000  Level Kansas City Center
10:20AM 37.6264 -90.2056 186° South 158 182 6,000  Level Kansas City Center
10:22AM 37.5814 -90.2147 189° South 162 186 6,000  Level Kansas City Center
10:23AM 37.5364 -90.2206 186° South 162 186 6,000  Level Kansas City Center
10:24AM 37.4922 -90.2242 184° South 160 184 6,000  Level Kansas City Center
10:25AM 37.4458 -90.2306 186° South 164 189 6,000  Level Kansas City Center
10:26AM 37.3914 -90.2400 188° South 165 190 6,000 -120 Level Kansas City Center
10:26AM 37.3714 -90.2447 191° South 178 205 5,900 -120 Descending Memphis Center
10:27AM 37.3278 -90.2472 183° South 178 205 5,900  Level Memphis Center
10:28AM 37.2819 -90.2525 185° South 178 205 5,900 -240 Level Memphis Center
10:30AM 37.2000 -90.2697 190° South 175 201 5,300 -360 Descending Kansas City Center